sensor_id;sensor_type;location;lat;lon;timestamp;pressure;altitude;pressure_sealevel;temperature;humidity
24440;BME280;12618;54.386;18.394;2023-06-04T00:00:52;100401.50;;;8.39;74.47
24440;BME280;12618;54.386;18.394;2023-06-04T00:03:24;100400.19;;;8.48;74.83
24440;BME280;12618;54.386;18.394;2023-06-04T00:05:56;100395.94;;;8.55;75.43
24440;BME280;12618;54.386;18.394;2023-06-04T00:08:27;100394.03;;;8.55;74.98
24440;BME280;12618;54.386;18.394;2023-06-04T00:10:59;100398.41;;;8.55;75.04
24440;BME280;12618;54.386;18.394;2023-06-04T00:13:31;100397.00;;;8.55;74.88
24440;BME280;12618;54.386;18.394;2023-06-04T00:16:04;100398.04;;;8.56;75.33
24440;BME280;12618;54.386;18.394;2023-06-04T00:18:35;100395.10;;;8.54;73.89
24440;BME280;12618;54.386;18.394;2023-06-04T00:21:08;100402.16;;;8.53;73.61
24440;BME280;12618;54.386;18.394;2023-06-04T00:23:39;100403.58;;;8.47;74.07
24440;BME280;12618;54.386;18.394;2023-06-04T00:26:11;100405.57;;;8.44;74.32
24440;BME280;12618;54.386;18.394;2023-06-04T00:28:43;100406.13;;;8.43;73.67
24440;BME280;12618;54.386;18.394;2023-06-04T00:31:14;100405.30;;;8.41;73.43
24440;BME280;12618;54.386;18.394;2023-06-04T00:33:48;100403.36;;;8.41;74.10
24440;BME280;12618;54.386;18.394;2023-06-04T00:36:19;100404.67;;;8.44;74.29
24440;BME280;12618;54.386;18.394;2023-06-04T00:38:51;100403.02;;;8.41;73.88
24440;BME280;12618;54.386;18.394;2023-06-04T00:41:23;100403.75;;;8.40;74.80
24440;BME280;12618;54.386;18.394;2023-06-04T00:43:54;100403.68;;;8.42;74.24
24440;BME280;12618;54.386;18.394;2023-06-04T00:46:29;100404.66;;;8.25;72.25
24440;BME280;12618;54.386;18.394;2023-06-04T00:49:04;100401.41;;;8.03;72.88
24440;BME280;12618;54.386;18.394;2023-06-04T00:51:36;100399.98;;;7.91;74.11
24440;BME280;12618;54.386;18.394;2023-06-04T00:54:09;100398.11;;;7.88;76.31
24440;BME280;12618;54.386;18.394;2023-06-04T00:56:44;100393.75;;;7.87;76.96
24440;BME280;12618;54.386;18.394;2023-06-04T00:59:16;100392.82;;;7.90;77.05
24440;BME280;12618;54.386;18.394;2023-06-04T01:01:51;100392.66;;;7.89;77.34
24440;BME280;12618;54.386;18.394;2023-06-04T01:07:19;100390.20;;;7.96;77.90
24440;BME280;12618;54.386;18.394;2023-06-04T01:09:51;100392.69;;;7.94;77.52
24440;BME280;12618;54.386;18.394;2023-06-04T01:12:22;100394.91;;;7.89;76.96
24440;BME280;12618;54.386;18.394;2023-06-04T01:14:54;100392.36;;;7.87;76.67
24440;BME280;12618;54.386;18.394;2023-06-04T01:17:34;100390.30;;;7.79;77.27
24440;BME280;12618;54.386;18.394;2023-06-04T01:20:18;100387.44;;;7.81;77.58
24440;BME280;12618;54.386;18.394;2023-06-04T01:25:36;100389.36;;;7.81;77.46
24440;BME280;12618;54.386;18.394;2023-06-04T01:28:13;100384.27;;;7.82;77.46
24440;BME280;12618;54.386;18.394;2023-06-04T01:30:47;100387.09;;;7.74;77.49
24440;BME280;12618;54.386;18.394;2023-06-04T01:33:20;100384.61;;;7.62;77.61
24440;BME280;12618;54.386;18.394;2023-06-04T01:35:52;100384.54;;;7.58;77.96
24440;BME280;12618;54.386;18.394;2023-06-04T01:38:26;100379.58;;;7.52;77.93
24440;BME280;12618;54.386;18.394;2023-06-04T01:40:58;100376.88;;;7.49;79.18
24440;BME280;12618;54.386;18.394;2023-06-04T01:43:34;100375.98;;;7.42;78.53
24440;BME280;12618;54.386;18.394;2023-06-04T01:46:07;100378.10;;;7.42;77.33
24440;BME280;12618;54.386;18.394;2023-06-04T01:48:38;100376.88;;;7.35;79.23
24440;BME280;12618;54.386;18.394;2023-06-04T01:51:12;100379.66;;;7.43;78.14
24440;BME280;12618;54.386;18.394;2023-06-04T01:53:43;100377.13;;;7.53;76.80
24440;BME280;12618;54.386;18.394;2023-06-04T01:56:15;100376.96;;;7.59;76.82
24440;BME280;12618;54.386;18.394;2023-06-04T01:58:47;100378.38;;;7.66;76.55
24440;BME280;12618;54.386;18.394;2023-06-04T02:01:18;100375.15;;;7.75;75.91
24440;BME280;12618;54.386;18.394;2023-06-04T02:03:51;100378.42;;;7.77;74.64
24440;BME280;12618;54.386;18.394;2023-06-04T02:06:23;100376.11;;;7.78;74.33
24440;BME280;12618;54.386;18.394;2023-06-04T02:08:56;100374.79;;;7.82;75.37
24440;BME280;12618;54.386;18.394;2023-06-04T02:11:28;100377.12;;;7.86;75.51
24440;BME280;12618;54.386;18.394;2023-06-04T02:13:59;100377.65;;;7.86;75.68
24440;BME280;12618;54.386;18.394;2023-06-04T02:16:31;100375.53;;;7.87;75.32
24440;BME280;12618;54.386;18.394;2023-06-04T02:19:04;100376.52;;;7.89;75.18
24440;BME280;12618;54.386;18.394;2023-06-04T02:21:36;100374.91;;;7.91;75.51
24440;BME280;12618;54.386;18.394;2023-06-04T02:24:09;100371.66;;;7.95;75.04
24440;BME280;12618;54.386;18.394;2023-06-04T02:26:40;100374.08;;;7.95;74.97
24440;BME280;12618;54.386;18.394;2023-06-04T02:29:12;100370.73;;;7.96;74.81
24440;BME280;12618;54.386;18.394;2023-06-04T02:31:44;100371.08;;;7.97;74.62
24440;BME280;12618;54.386;18.394;2023-06-04T02:34:16;100374.60;;;7.96;74.65
24440;BME280;12618;54.386;18.394;2023-06-04T02:36:48;100374.95;;;7.95;74.76
24440;BME280;12618;54.386;18.394;2023-06-04T02:39:22;100377.75;;;7.96;74.74
24440;BME280;12618;54.386;18.394;2023-06-04T02:41:53;100376.95;;;7.94;74.76
24440;BME280;12618;54.386;18.394;2023-06-04T02:44:25;100374.51;;;7.94;75.16
24440;BME280;12618;54.386;18.394;2023-06-04T02:46:58;100374.33;;;7.94;75.52
24440;BME280;12618;54.386;18.394;2023-06-04T02:49:29;100376.40;;;7.94;75.85
24440;BME280;12618;54.386;18.394;2023-06-04T02:52:01;100374.80;;;7.95;76.37
24440;BME280;12618;54.386;18.394;2023-06-04T02:54:33;100378.08;;;7.96;75.88
24440;BME280;12618;54.386;18.394;2023-06-04T02:57:05;100378.16;;;7.94;76.37
24440;BME280;12618;54.386;18.394;2023-06-04T02:59:37;100374.33;;;7.93;77.13
24440;BME280;12618;54.386;18.394;2023-06-04T03:02:11;100379.80;;;7.98;75.93
24440;BME280;12618;54.386;18.394;2023-06-04T03:04:43;100378.36;;;7.99;75.34
24440;BME280;12618;54.386;18.394;2023-06-04T03:07:15;100378.81;;;8.02;76.11
24440;BME280;12618;54.386;18.394;2023-06-04T03:09:50;100382.11;;;8.04;75.69
24440;BME280;12618;54.386;18.394;2023-06-04T03:12:22;100384.23;;;8.03;75.48
24440;BME280;12618;54.386;18.394;2023-06-04T03:14:54;100384.25;;;8.02;75.75
24440;BME280;12618;54.386;18.394;2023-06-04T03:17:26;100387.80;;;8.07;76.01
24440;BME280;12618;54.386;18.394;2023-06-04T03:19:58;100386.30;;;8.17;75.73
24440;BME280;12618;54.386;18.394;2023-06-04T03:22:30;100381.46;;;8.27;75.33
24440;BME280;12618;54.386;18.394;2023-06-04T03:25:02;100378.89;;;8.32;75.09
24440;BME280;12618;54.386;18.394;2023-06-04T03:27:34;100380.20;;;8.36;75.31
24440;BME280;12618;54.386;18.394;2023-06-04T03:30:07;100382.35;;;8.34;75.00
24440;BME280;12618;54.386;18.394;2023-06-04T03:32:42;100379.58;;;8.32;75.50
24440;BME280;12618;54.386;18.394;2023-06-04T03:35:15;100378.86;;;8.40;75.78
24440;BME280;12618;54.386;18.394;2023-06-04T03:37:46;100377.73;;;8.48;75.68
24440;BME280;12618;54.386;18.394;2023-06-04T03:40:21;100376.16;;;8.54;75.66
24440;BME280;12618;54.386;18.394;2023-06-04T03:42:53;100370.98;;;8.51;75.64
24440;BME280;12618;54.386;18.394;2023-06-04T03:45:24;100374.22;;;8.55;76.08
24440;BME280;12618;54.386;18.394;2023-06-04T03:47:56;100375.80;;;8.66;75.90
24440;BME280;12618;54.386;18.394;2023-06-04T03:50:28;100371.86;;;8.70;76.48
24440;BME280;12618;54.386;18.394;2023-06-04T03:52:59;100366.30;;;8.73;76.50
24440;BME280;12618;54.386;18.394;2023-06-04T03:55:31;100366.86;;;8.84;76.30
24440;BME280;12618;54.386;18.394;2023-06-04T03:58:03;100368.02;;;8.92;76.61
24440;BME280;12618;54.386;18.394;2023-06-04T04:00:35;100370.22;;;9.06;76.49
24440;BME280;12618;54.386;18.394;2023-06-04T04:03:07;100370.23;;;9.16;75.64
24440;BME280;12618;54.386;18.394;2023-06-04T04:05:41;100367.88;;;9.29;75.23
24440;BME280;12618;54.386;18.394;2023-06-04T04:08:13;100363.49;;;9.40;75.38
24440;BME280;12618;54.386;18.394;2023-06-04T04:10:47;100365.19;;;9.48;74.67
24440;BME280;12618;54.386;18.394;2023-06-04T04:13:19;100367.07;;;9.54;74.27
24440;BME280;12618;54.386;18.394;2023-06-04T04:15:51;100364.63;;;9.65;74.00
24440;BME280;12618;54.386;18.394;2023-06-04T04:18:23;100363.19;;;9.76;73.55
24440;BME280;12618;54.386;18.394;2023-06-04T04:20:55;100359.52;;;9.85;73.48
24440;BME280;12618;54.386;18.394;2023-06-04T04:23:28;100359.75;;;9.93;73.63
24440;BME280;12618;54.386;18.394;2023-06-04T04:26:00;100355.51;;;10.04;73.49
24440;BME280;12618;54.386;18.394;2023-06-04T04:28:32;100354.79;;;10.14;73.56
24440;BME280;12618;54.386;18.394;2023-06-04T04:31:05;100355.85;;;10.25;73.27
24440;BME280;12618;54.386;18.394;2023-06-04T04:33:38;100359.12;;;10.37;72.68
24440;BME280;12618;54.386;18.394;2023-06-04T04:36:12;100357.98;;;10.48;72.57
24440;BME280;12618;54.386;18.394;2023-06-04T04:38:45;100353.66;;;10.60;72.53
24440;BME280;12618;54.386;18.394;2023-06-04T04:41:17;100355.23;;;10.69;71.76
24440;BME280;12618;54.386;18.394;2023-06-04T04:43:48;100356.23;;;10.80;71.56
24440;BME280;12618;54.386;18.394;2023-06-04T04:46:20;100352.21;;;10.93;71.41
24440;BME280;12618;54.386;18.394;2023-06-04T04:48:52;100352.02;;;11.03;70.57
24440;BME280;12618;54.386;18.394;2023-06-04T04:51:23;100348.23;;;11.13;69.54
24440;BME280;12618;54.386;18.394;2023-06-04T04:53:55;100348.55;;;11.23;69.23
24440;BME280;12618;54.386;18.394;2023-06-04T04:56:32;100349.09;;;11.31;68.50
24440;BME280;12618;54.386;18.394;2023-06-04T04:59:04;100348.84;;;11.41;68.64
24440;BME280;12618;54.386;18.394;2023-06-04T05:01:36;100344.59;;;11.50;68.64
24440;BME280;12618;54.386;18.394;2023-06-04T05:04:08;100345.08;;;11.60;68.46
24440;BME280;12618;54.386;18.394;2023-06-04T05:06:40;100347.05;;;11.72;68.66
24440;BME280;12618;54.386;18.394;2023-06-04T05:09:12;100350.39;;;11.85;68.23
24440;BME280;12618;54.386;18.394;2023-06-04T05:11:43;100348.15;;;11.96;68.33
24440;BME280;12618;54.386;18.394;2023-06-04T05:14:15;100347.13;;;12.11;67.87
24440;BME280;12618;54.386;18.394;2023-06-04T05:16:47;100346.87;;;12.28;67.14
24440;BME280;12618;54.386;18.394;2023-06-04T05:19:20;100345.03;;;12.46;67.46
24440;BME280;12618;54.386;18.394;2023-06-04T05:21:52;100348.75;;;12.65;66.47
24440;BME280;12618;54.386;18.394;2023-06-04T05:24:24;100345.31;;;12.78;63.98
24440;BME280;12618;54.386;18.394;2023-06-04T05:26:55;100347.03;;;12.90;63.06
24440;BME280;12618;54.386;18.394;2023-06-04T05:29:27;100348.23;;;13.02;60.79
24440;BME280;12618;54.386;18.394;2023-06-04T05:31:59;100348.09;;;13.27;62.47
24440;BME280;12618;54.386;18.394;2023-06-04T05:34:31;100347.48;;;13.54;59.84
24440;BME280;12618;54.386;18.394;2023-06-04T05:37:04;100350.24;;;13.62;56.86
24440;BME280;12618;54.386;18.394;2023-06-04T05:39:42;100346.60;;;13.88;57.89
24440;BME280;12618;54.386;18.394;2023-06-04T05:42:14;100343.09;;;14.18;57.93
24440;BME280;12618;54.386;18.394;2023-06-04T05:44:46;100344.83;;;14.42;57.53
24440;BME280;12618;54.386;18.394;2023-06-04T05:47:18;100347.08;;;14.57;57.47
24440;BME280;12618;54.386;18.394;2023-06-04T05:49:49;100345.02;;;14.72;59.11
24440;BME280;12618;54.386;18.394;2023-06-04T05:52:21;100344.13;;;14.69;54.04
24440;BME280;12618;54.386;18.394;2023-06-04T05:54:53;100345.59;;;14.61;54.11
24440;BME280;12618;54.386;18.394;2023-06-04T05:57:25;100343.98;;;14.62;55.27
24440;BME280;12618;54.386;18.394;2023-06-04T05:59:57;100344.21;;;14.64;55.69
24440;BME280;12618;54.386;18.394;2023-06-04T06:02:29;100347.60;;;14.70;57.04
24440;BME280;12618;54.386;18.394;2023-06-04T06:05:02;100350.85;;;14.75;55.68
24440;BME280;12618;54.386;18.394;2023-06-04T06:07:34;100351.39;;;14.81;53.52
24440;BME280;12618;54.386;18.394;2023-06-04T06:10:06;100350.85;;;14.88;52.52
24440;BME280;12618;54.386;18.394;2023-06-04T06:12:38;100349.99;;;14.97;53.50
24440;BME280;12618;54.386;18.394;2023-06-04T06:15:10;100354.40;;;15.03;51.32
24440;BME280;12618;54.386;18.394;2023-06-04T06:17:42;100356.25;;;15.14;50.63
24440;BME280;12618;54.386;18.394;2023-06-04T06:20:15;100357.05;;;15.25;51.04
24440;BME280;12618;54.386;18.394;2023-06-04T06:22:49;100352.47;;;15.38;51.70
24440;BME280;12618;54.386;18.394;2023-06-04T06:25:21;100352.03;;;15.51;49.83
24440;BME280;12618;54.386;18.394;2023-06-04T06:27:52;100358.03;;;15.64;50.54
24440;BME280;12618;54.386;18.394;2023-06-04T06:30:24;100360.70;;;15.82;49.34
24440;BME280;12618;54.386;18.394;2023-06-04T06:32:56;100359.91;;;15.98;46.77
24440;BME280;12618;54.386;18.394;2023-06-04T06:35:28;100356.72;;;16.27;47.89
24440;BME280;12618;54.386;18.394;2023-06-04T06:37:59;100356.13;;;16.68;45.75
24440;BME280;12618;54.386;18.394;2023-06-04T06:40:31;100355.48;;;17.17;45.57
24440;BME280;12618;54.386;18.394;2023-06-04T06:43:02;100356.79;;;17.76;44.03
24440;BME280;12618;54.386;18.394;2023-06-04T06:45:34;100357.80;;;18.36;43.65
24440;BME280;12618;54.386;18.394;2023-06-04T06:48:08;100361.11;;;19.00;41.95
24440;BME280;12618;54.386;18.394;2023-06-04T06:50:39;100359.91;;;19.50;40.14
24440;BME280;12618;54.386;18.394;2023-06-04T06:53:11;100356.55;;;19.99;40.84
24440;BME280;12618;54.386;18.394;2023-06-04T06:55:43;100356.23;;;20.42;38.02
24440;BME280;12618;54.386;18.394;2023-06-04T06:58:14;100357.42;;;20.92;37.12
24440;BME280;12618;54.386;18.394;2023-06-04T07:00:47;100352.35;;;21.71;38.73
24440;BME280;12618;54.386;18.394;2023-06-04T07:03:19;100356.52;;;22.58;37.28
24440;BME280;12618;54.386;18.394;2023-06-04T07:05:51;100353.55;;;23.39;38.55
24440;BME280;12618;54.386;18.394;2023-06-04T07:08:23;100356.89;;;24.11;35.11
24440;BME280;12618;54.386;18.394;2023-06-04T07:10:55;100350.70;;;24.60;35.05
24440;BME280;12618;54.386;18.394;2023-06-04T07:13:26;100351.66;;;24.89;30.46
24440;BME280;12618;54.386;18.394;2023-06-04T07:15:58;100351.98;;;25.13;31.58
24440;BME280;12618;54.386;18.394;2023-06-04T07:18:30;100349.33;;;25.66;35.35
24440;BME280;12618;54.386;18.394;2023-06-04T07:21:02;100358.64;;;25.97;30.45
24440;BME280;12618;54.386;18.394;2023-06-04T07:23:34;100365.85;;;26.11;27.58
24440;BME280;12618;54.386;18.394;2023-06-04T07:26:08;100364.30;;;26.49;29.34
24440;BME280;12618;54.386;18.394;2023-06-04T07:28:40;100361.70;;;27.04;28.85
24440;BME280;12618;54.386;18.394;2023-06-04T07:31:16;100359.46;;;27.50;29.17
24440;BME280;12618;54.386;18.394;2023-06-04T07:33:48;100358.95;;;27.83;28.08
24440;BME280;12618;54.386;18.394;2023-06-04T07:36:20;100359.00;;;28.08;27.78
24440;BME280;12618;54.386;18.394;2023-06-04T07:38:52;100361.69;;;28.13;27.23
24440;BME280;12618;54.386;18.394;2023-06-04T07:41:23;100364.70;;;28.09;25.11
24440;BME280;12618;54.386;18.394;2023-06-04T07:43:55;100362.56;;;28.15;25.03
24440;BME280;12618;54.386;18.394;2023-06-04T07:46:27;100363.10;;;28.40;25.59
24440;BME280;12618;54.386;18.394;2023-06-04T07:48:59;100366.00;;;28.76;24.61
24440;BME280;12618;54.386;18.394;2023-06-04T07:51:30;100370.09;;;28.74;23.35
24440;BME280;12618;54.386;18.394;2023-06-04T07:54:02;100362.21;;;28.51;24.64
24440;BME280;12618;54.386;18.394;2023-06-04T07:56:34;100368.24;;;28.85;23.41
24440;BME280;12618;54.386;18.394;2023-06-04T07:59:06;100365.98;;;28.80;22.94
24440;BME280;12618;54.386;18.394;2023-06-04T08:01:38;100359.92;;;29.09;23.32
24440;BME280;12618;54.386;18.394;2023-06-04T08:04:10;100361.48;;;29.36;22.93
24440;BME280;12618;54.386;18.394;2023-06-04T08:06:42;100359.29;;;29.65;23.44
24440;BME280;12618;54.386;18.394;2023-06-04T08:09:15;100366.23;;;30.00;22.25
24440;BME280;12618;54.386;18.394;2023-06-04T08:11:50;100362.67;;;30.01;21.98
24440;BME280;12618;54.386;18.394;2023-06-04T08:14:21;100360.36;;;30.08;21.91
24440;BME280;12618;54.386;18.394;2023-06-04T08:16:54;100362.69;;;29.15;21.71
24440;BME280;12618;54.386;18.394;2023-06-04T08:19:26;100360.73;;;29.11;22.25
24440;BME280;12618;54.386;18.394;2023-06-04T08:21:57;100361.27;;;29.11;21.96
24440;BME280;12618;54.386;18.394;2023-06-04T08:24:29;100356.64;;;29.14;22.29
24440;BME280;12618;54.386;18.394;2023-06-04T08:27:01;100360.73;;;29.48;21.86
24440;BME280;12618;54.386;18.394;2023-06-04T08:29:33;100357.88;;;29.72;21.31
24440;BME280;12618;54.386;18.394;2023-06-04T08:32:07;100361.52;;;29.91;21.15
24440;BME280;12618;54.386;18.394;2023-06-04T08:34:39;100362.95;;;30.02;20.29
24440;BME280;12618;54.386;18.394;2023-06-04T08:37:11;100361.95;;;30.14;20.56
24440;BME280;12618;54.386;18.394;2023-06-04T08:39:45;100363.65;;;30.33;20.62
24440;BME280;12618;54.386;18.394;2023-06-04T08:42:29;100364.52;;;30.20;19.57
24440;BME280;12618;54.386;18.394;2023-06-04T08:45:02;100363.02;;;30.26;20.03
24440;BME280;12618;54.386;18.394;2023-06-04T08:47:34;100371.30;;;29.79;18.80
24440;BME280;12618;54.386;18.394;2023-06-04T08:50:07;100370.54;;;29.30;18.72
24440;BME280;12618;54.386;18.394;2023-06-04T08:52:43;100365.27;;;28.74;19.36
24440;BME280;12618;54.386;18.394;2023-06-04T08:55:15;100368.31;;;28.62;20.59
24440;BME280;12618;54.386;18.394;2023-06-04T08:57:47;100370.75;;;28.79;19.50
24440;BME280;12618;54.386;18.394;2023-06-04T09:00:20;100374.80;;;28.44;19.88
24440;BME280;12618;54.386;18.394;2023-06-04T09:02:53;100373.09;;;28.54;19.42
24440;BME280;12618;54.386;18.394;2023-06-04T09:05:25;100374.95;;;28.64;19.24
24440;BME280;12618;54.386;18.394;2023-06-04T09:08:00;100373.13;;;28.49;19.30
24440;BME280;12618;54.386;18.394;2023-06-04T09:10:34;100369.58;;;28.61;19.66
24440;BME280;12618;54.386;18.394;2023-06-04T09:13:08;100373.61;;;28.76;20.07
24440;BME280;12618;54.386;18.394;2023-06-04T09:15:40;100373.45;;;29.00;20.17
24440;BME280;12618;54.386;18.394;2023-06-04T09:18:12;100366.94;;;29.08;19.85
24440;BME280;12618;54.386;18.394;2023-06-04T09:20:44;100370.38;;;29.26;20.22
24440;BME280;12618;54.386;18.394;2023-06-04T09:23:15;100371.14;;;29.23;19.52
24440;BME280;12618;54.386;18.394;2023-06-04T09:25:48;100372.45;;;28.58;18.73
24440;BME280;12618;54.386;18.394;2023-06-04T09:28:20;100372.49;;;27.85;19.34
24440;BME280;12618;54.386;18.394;2023-06-04T09:30:52;100367.83;;;28.02;19.91
24440;BME280;12618;54.386;18.394;2023-06-04T09:33:24;100362.77;;;28.36;20.29
24440;BME280;12618;54.386;18.394;2023-06-04T09:35:58;100362.88;;;28.62;20.05
24440;BME280;12618;54.386;18.394;2023-06-04T09:38:36;100361.57;;;28.79;19.91
24440;BME280;12618;54.386;18.394;2023-06-04T09:41:16;100358.38;;;28.56;19.09
24440;BME280;12618;54.386;18.394;2023-06-04T09:43:50;100357.34;;;28.07;19.16
24440;BME280;12618;54.386;18.394;2023-06-04T09:46:22;100356.20;;;28.19;20.15
24440;BME280;12618;54.386;18.394;2023-06-04T09:49:04;100355.77;;;28.02;20.14
24440;BME280;12618;54.386;18.394;2023-06-04T09:51:47;100352.19;;;28.14;20.70
24440;BME280;12618;54.386;18.394;2023-06-04T09:54:19;100352.05;;;28.32;20.46
24440;BME280;12618;54.386;18.394;2023-06-04T09:56:51;100347.66;;;28.37;20.81
24440;BME280;12618;54.386;18.394;2023-06-04T09:59:23;100355.73;;;28.66;20.26
24440;BME280;12618;54.386;18.394;2023-06-04T10:01:58;100354.83;;;28.61;19.74
24440;BME280;12618;54.386;18.394;2023-06-04T10:04:31;100357.16;;;28.26;20.08
24440;BME280;12618;54.386;18.394;2023-06-04T10:07:05;100357.48;;;27.99;20.15
24440;BME280;12618;54.386;18.394;2023-06-04T10:09:39;100358.56;;;27.67;19.89
24440;BME280;12618;54.386;18.394;2023-06-04T10:12:26;100351.88;;;27.67;19.98
24440;BME280;12618;54.386;18.394;2023-06-04T10:15:12;100357.59;;;27.63;19.75
24440;BME280;12618;54.386;18.394;2023-06-04T10:17:44;100353.48;;;27.52;20.16
24440;BME280;12618;54.386;18.394;2023-06-04T10:20:16;100357.48;;;27.40;19.74
24440;BME280;12618;54.386;18.394;2023-06-04T10:22:49;100349.91;;;27.38;19.91
24440;BME280;12618;54.386;18.394;2023-06-04T10:25:21;100352.02;;;27.30;19.30
24440;BME280;12618;54.386;18.394;2023-06-04T10:27:52;100353.55;;;27.33;20.48
24440;BME280;12618;54.386;18.394;2023-06-04T10:30:24;100353.15;;;26.59;20.73
24440;BME280;12618;54.386;18.394;2023-06-04T10:32:57;100352.14;;;26.48;20.20
24440;BME280;12618;54.386;18.394;2023-06-04T10:35:33;100356.54;;;26.59;20.54
24440;BME280;12618;54.386;18.394;2023-06-04T10:38:07;100346.77;;;26.73;20.22
24440;BME280;12618;54.386;18.394;2023-06-04T10:40:38;100350.88;;;26.78;20.00
24440;BME280;12618;54.386;18.394;2023-06-04T10:43:12;100350.90;;;26.80;20.07
24440;BME280;12618;54.386;18.394;2023-06-04T10:45:44;100350.33;;;26.70;20.28
24440;BME280;12618;54.386;18.394;2023-06-04T10:48:16;100347.88;;;26.42;20.31
24440;BME280;12618;54.386;18.394;2023-06-04T10:50:50;100355.55;;;26.17;20.19
24440;BME280;12618;54.386;18.394;2023-06-04T10:53:22;100357.22;;;25.97;20.18
24440;BME280;12618;54.386;18.394;2023-06-04T10:55:55;100348.00;;;26.20;20.35
24440;BME280;12618;54.386;18.394;2023-06-04T10:58:35;100349.58;;;26.10;20.79
24440;BME280;12618;54.386;18.394;2023-06-04T11:01:06;100355.95;;;25.88;19.89
24440;BME280;12618;54.386;18.394;2023-06-04T11:03:38;100353.02;;;25.96;20.98
24440;BME280;12618;54.386;18.394;2023-06-04T11:06:17;100351.73;;;26.21;21.22
24440;BME280;12618;54.386;18.394;2023-06-04T11:08:48;100352.16;;;26.24;20.08
24440;BME280;12618;54.386;18.394;2023-06-04T11:11:20;100348.10;;;26.31;20.68
24440;BME280;12618;54.386;18.394;2023-06-04T11:13:52;100349.25;;;26.39;20.60
24440;BME280;12618;54.386;18.394;2023-06-04T11:16:24;100348.36;;;26.39;20.58
24440;BME280;12618;54.386;18.394;2023-06-04T11:18:56;100346.13;;;26.40;20.86
24440;BME280;12618;54.386;18.394;2023-06-04T11:21:28;100347.19;;;26.35;20.94
24440;BME280;12618;54.386;18.394;2023-06-04T11:24:00;100348.37;;;26.41;21.02
24440;BME280;12618;54.386;18.394;2023-06-04T11:26:34;100346.55;;;26.32;20.93
24440;BME280;12618;54.386;18.394;2023-06-04T11:29:11;100348.10;;;26.28;21.38
24440;BME280;12618;54.386;18.394;2023-06-04T11:31:44;100353.66;;;26.30;22.36
24440;BME280;12618;54.386;18.394;2023-06-04T11:34:24;100355.14;;;26.13;24.15
24440;BME280;12618;54.386;18.394;2023-06-04T11:36:56;100352.88;;;26.02;24.49
24440;BME280;12618;54.386;18.394;2023-06-04T11:39:34;100347.34;;;25.81;24.91
24440;BME280;12618;54.386;18.394;2023-06-04T11:42:07;100342.40;;;25.20;26.05
24440;BME280;12618;54.386;18.394;2023-06-04T11:44:38;100339.76;;;24.79;26.32
24440;BME280;12618;54.386;18.394;2023-06-04T11:47:11;100343.48;;;24.26;26.77
24440;BME280;12618;54.386;18.394;2023-06-04T11:49:43;100348.30;;;23.55;27.57
24440;BME280;12618;54.386;18.394;2023-06-04T11:52:18;100348.98;;;23.36;28.19
24440;BME280;12618;54.386;18.394;2023-06-04T11:54:51;100352.95;;;23.02;28.43
24440;BME280;12618;54.386;18.394;2023-06-04T11:57:23;100350.28;;;22.78;29.14
24440;BME280;12618;54.386;18.394;2023-06-04T11:59:54;100355.48;;;22.43;29.30
24440;BME280;12618;54.386;18.394;2023-06-04T12:02:26;100349.77;;;22.68;28.92
24440;BME280;12618;54.386;18.394;2023-06-04T12:04:58;100354.16;;;22.56;28.91
24440;BME280;12618;54.386;18.394;2023-06-04T12:07:29;100346.60;;;22.69;28.67
24440;BME280;12618;54.386;18.394;2023-06-04T12:10:08;100347.68;;;22.57;28.96
24440;BME280;12618;54.386;18.394;2023-06-04T12:12:40;100347.46;;;22.06;29.12
24440;BME280;12618;54.386;18.394;2023-06-04T12:15:19;100346.29;;;22.11;29.55
24440;BME280;12618;54.386;18.394;2023-06-04T12:17:52;100349.50;;;22.32;29.46
24440;BME280;12618;54.386;18.394;2023-06-04T12:20:35;100349.95;;;22.35;29.21
24440;BME280;12618;54.386;18.394;2023-06-04T12:23:07;100355.35;;;22.44;28.95
24440;BME280;12618;54.386;18.394;2023-06-04T12:25:39;100355.50;;;22.53;29.47
24440;BME280;12618;54.386;18.394;2023-06-04T12:28:17;100358.66;;;22.58;29.36
24440;BME280;12618;54.386;18.394;2023-06-04T12:30:49;100350.86;;;22.42;30.05
24440;BME280;12618;54.386;18.394;2023-06-04T12:33:21;100352.27;;;21.80;30.88
24440;BME280;12618;54.386;18.394;2023-06-04T12:35:52;100347.35;;;20.93;32.32
24440;BME280;12618;54.386;18.394;2023-06-04T12:38:24;100347.80;;;20.96;32.56
24440;BME280;12618;54.386;18.394;2023-06-04T12:40:55;100351.67;;;21.12;32.25
24440;BME280;12618;54.386;18.394;2023-06-04T12:43:27;100353.46;;;21.30;32.01
24440;BME280;12618;54.386;18.394;2023-06-04T12:45:59;100355.32;;;21.40;31.85
24440;BME280;12618;54.386;18.394;2023-06-04T12:48:30;100358.98;;;21.56;31.41
24440;BME280;12618;54.386;18.394;2023-06-04T12:51:04;100356.00;;;21.30;31.15
24440;BME280;12618;54.386;18.394;2023-06-04T12:53:40;100351.70;;;21.14;32.20
24440;BME280;12618;54.386;18.394;2023-06-04T12:56:12;100356.50;;;21.15;32.82
24440;BME280;12618;54.386;18.394;2023-06-04T12:58:44;100359.98;;;21.27;32.78
24440;BME280;12618;54.386;18.394;2023-06-04T13:01:15;100368.01;;;21.05;33.09
24440;BME280;12618;54.386;18.394;2023-06-04T13:03:47;100371.63;;;21.13;32.90
24440;BME280;12618;54.386;18.394;2023-06-04T13:06:19;100367.45;;;21.30;32.37
24440;BME280;12618;54.386;18.394;2023-06-04T13:08:52;100369.88;;;21.39;32.63
24440;BME280;12618;54.386;18.394;2023-06-04T13:11:23;100361.27;;;21.39;31.92
24440;BME280;12618;54.386;18.394;2023-06-04T13:13:55;100362.64;;;21.32;32.10
24440;BME280;12618;54.386;18.394;2023-06-04T13:16:27;100360.61;;;21.28;32.42